Gemini — WDE6488 — position and weather

sailwx.info

Track history (hours):
 
Tides and Currents Weather Stations Pressure Air Temp Water Temp Dewpoint Dewpoint Depression Visibility Wind Speed Wind Dir Waves Ship Positions

Gemini

Owner: San Francisco Bay Area Water Emergency Transportation Authority, San Francisco, CA. More information available from US FCC via Universal Licensing System and Coast Guard Vessel Documentation Center.

Last reported at 2017-Dec-16 02:46 UTC. Time now 2017-Dec-18 03:12 UTC.
Position N 38°06' W 122°16'.

Length 35 m.

Type: Passenger vessel. MMSI: 367380880.

Date/timePositionNaut miles runAvg speedWind from/ knotsBaromVisibWave heightAir tempDewpointWater temp
2017-Dec-16 02:46N 38°06' W 122°16'1 2.5
2017-Dec-16 02:30N 38°06' W 122°16'918.9
2017-Dec-16 02:01N 37°60' W 122°25'1223.5
2017-Dec-16 01:30N 37°48' W 122°24'1 2.4
2017-Dec-16 01:01N 37°49' W 122°24'1224.2
2017-Dec-16 00:30N 38°01' W 122°23'714.4
2017-Dec-16 00:00N 38°06' W 122°16'1 2.4
2017-Dec-15 23:29N 38°05' W 122°15'1020.8
2017-Dec-15 23:00N 37°59' W 122°25'1122.8
2017-Dec-15 22:30N 37°48' W 122°24'0 0.0
2017-Dec-15 22:00N 37°48' W 122°24'0 0.0
2017-Dec-15 21:30N 37°48' W 122°24'0 0.9
2017-Dec-15 21:00N 37°48' W 122°23'1323.9
2017-Dec-15 20:29N 38°01' W 122°23'816.0
2017-Dec-15 20:00N 38°06' W 122°16'0 0.6
2017-Dec-15 19:30N 38°06' W 122°16'0 0.0
2017-Dec-15 18:57N 38°06' W 122°16'2 3.8
2017-Dec-15 18:30N 38°05' W 122°15'1224.4
2017-Dec-15 18:01N 37°56' W 122°26'816.3
2017-Dec-15 17:31N 37°48' W 122°24'1224.6
2017-Dec-15 17:00N 38°00' W 122°24'811.2
2017-Dec-15 16:15N 38°06' W 122°16'2 8.8
2017-Dec-15 16:00N 38°04' W 122°16'1325.3
2017-Dec-15 15:31N 37°53' W 122°25'611.2
2017-Dec-15 15:01N 37°48' W 122°24'1223.7
2017-Dec-15 14:30N 37°60' W 122°25'912.6
2017-Dec-15 13:46N 38°06' W 122°16'1 0.1
2017-Dec-15 02:30N 38°05' W 122°15'1812.0
2017-Dec-15 01:01N 37°49' W 122°23'1224.3
2017-Dec-15 00:31N 38°01' W 122°23'8 1.3
2017-Dec-14 18:30N 38°05' W 122°15'1223.5
2017-Dec-14 18:01N 37°57' W 122°26'918.7
2017-Dec-14 17:30N 37°48' W 122°23'1224.4
2017-Dec-14 17:00N 38°00' W 122°24'917.6
2017-Dec-14 16:30N 38°06' W 122°16'2 4.7
2017-Dec-14 16:00N 38°04' W 122°16'1716.9
2017-Dec-14 15:00N 37°48' W 122°24'1224.0
2017-Dec-14 14:30N 37°60' W 122°25'918.5
2017-Dec-14 14:00N 38°06' W 122°16'0 0.6
2017-Dec-14 13:30N 38°06' W 122°16'0 0.0
2017-Dec-14 13:00N 38°06' W 122°16'0 0.0
2017-Dec-14 02:26N 38°06' W 122°16'3 7.3
2017-Dec-14 02:01N 38°03' W 122°18'1122.9
2017-Dec-14 01:31N 37°53' W 122°25'5 9.4
2017-Dec-14 01:01N 37°49' W 122°24'1325.3
2017-Dec-14 00:30N 38°01' W 122°23'714.4
2017-Dec-14 00:00N 38°06' W 122°16'1 1.9
2017-Dec-13 23:30N 38°05' W 122°15'1019.6
2017-Dec-13 23:00N 37°59' W 122°25'1122.9
2017-Dec-13 22:30N 37°48' W 122°24'0 0.0
2017-Dec-13 22:00N 37°48' W 122°24'0 0.0
2017-Dec-13 21:30N 37°48' W 122°24'0 0.5
2017-Dec-13 21:01N 37°48' W 122°24'1224.5
2017-Dec-13 20:31N 38°00' W 122°24'815.6
2017-Dec-13 19:58N 38°06' W 122°16'0 0.6
2017-Dec-13 19:30N 38°06' W 122°16'0 0.0
2017-Dec-13 19:00N 38°06' W 122°16'2 4.6
2017-Dec-13 18:30N 38°04' W 122°17'1122.9
2017-Dec-13 18:01N 37°55' W 122°25'713.3
2017-Dec-13 17:31N 37°48' W 122°23'1223.9
2017-Dec-13 17:00N 38°01' W 122°23'814.0
2017-Dec-13 16:25N 38°06' W 122°16'3 7.0
2017-Dec-13 16:01N 38°03' W 122°17'1224.5
2017-Dec-13 15:31N 37°53' W 122°25'5 9.5
2017-Dec-13 15:01N 37°48' W 122°23'1223.8
2017-Dec-13 14:30N 37°60' W 122°24'918.1
2017-Dec-13 14:00N 38°06' W 122°16'0 0.0
2017-Dec-13 03:08N 38°06' W 122°16'1 4.8
2017-Dec-13 02:59N 38°05' W 122°15'1021.5
2017-Dec-13 02:31N 37°59' W 122°25'1120.6
2017-Dec-13 01:58N 37°48' W 122°24'919.6
2017-Dec-13 01:30N 37°56' W 122°27'1223.2
2017-Dec-13 00:58N 38°05' W 122°15'0 1.0
2017-Dec-13 00:29N 38°05' W 122°15'1123.1
2017-Dec-13 00:00N 37°58' W 122°26'1019.2
2017-Dec-12 23:28N 37°48' W 122°24'1 2.6
2017-Dec-12 23:00N 37°49' W 122°25'1224.0
2017-Dec-12 22:30N 38°01' W 122°24'811.8
2017-Dec-12 21:48N 38°06' W 122°16'0 0.2
2017-Dec-12 20:45N 38°06' W 122°16'1 2.5
2017-Dec-12 20:30N 38°06' W 122°15'918.8
2017-Dec-12 20:00N 37°60' W 122°25'1121.2
2017-Dec-12 19:29N 37°49' W 122°25'1 2.5
2017-Dec-12 19:01N 37°48' W 122°24'1224.0
2017-Dec-12 18:30N 37°60' W 122°24'912.4
2017-Dec-12 17:46N 38°06' W 122°16'0 0.0
2017-Dec-12 17:28N 38°06' W 122°16'3 7.0
2017-Dec-12 17:00N 38°03' W 122°18'1122.7
2017-Dec-12 16:30N 37°53' W 122°25'611.0
2017-Dec-12 16:00N 37°48' W 122°24'1123.7
2017-Dec-12 15:31N 37°59' W 122°25'10 1.0
2017-Dec-12 06:02N 38°06' W 122°16'0 1.8
2017-Dec-12 06:00N 38°06' W 122°16'0 0.7
2017-Dec-12 05:30N 38°06' W 122°16'816.9
2017-Dec-12 05:01N 38°00' W 122°24'1224.8
2017-Dec-12 04:30N 37°48' W 122°24'918.0
2017-Dec-12 04:00N 37°56' W 122°27'1325.0
2017-Dec-12 03:30N 38°05' W 122°15'1 2.1
2017-Dec-12 02:59N 38°06' W 122°16'1122.5
2017-Dec-12 02:30N 37°59' W 122°25'1121.6
2017-Dec-12 02:00N 37°48' W 122°24'815.3
2017-Dec-12 01:31N 37°55' W 122°27'1326.3
2017-Dec-12 01:00N 38°04' W 122°15'1 2.3
2017-Dec-12 00:25N 38°06' W 122°16'921.9
2017-Dec-12 00:00N 37°60' W 122°24'1224.0
2017-Dec-11 23:30N 37°48' W 122°24'1 2.4
2017-Dec-11 23:00N 37°49' W 122°25'1122.2
2017-Dec-11 22:30N 37°60' W 122°25'9 3.4
2017-Dec-11 19:49N 38°06' W 122°16'0 0.0
2017-Dec-11 19:30N 38°06' W 122°16'0 0.1
2017-Dec-11 18:58N 38°06' W 122°16'510.0
2017-Dec-11 18:30N 38°02' W 122°19'1122.5
2017-Dec-11 18:01N 37°52' W 122°25'4 8.1
2017-Dec-11 17:31N 37°48' W 122°24'1224.1
2017-Dec-11 17:00N 37°60' W 122°25'918.1
2017-Dec-11 16:30N 38°06' W 122°16'3 5.2
2017-Dec-11 16:01N 38°04' W 122°16'1224.5
2017-Dec-11 15:31N 37°53' W 122°25'510.8
2017-Dec-11 15:01N 37°48' W 122°23'1224.1
2017-Dec-11 14:31N 38°00' W 122°24'917.5
2017-Dec-11 14:00N 38°06' W 122°16'0 0.4
2017-Dec-11 13:16N 38°06' W 122°16'  
2017-Dec-09 02:54N 38°06' W 122°16'1 2.3
2017-Dec-09 02:29N 38°05' W 122°15'1020.5
2017-Dec-09 02:00N 37°59' W 122°25'1223.1
2017-Dec-09 01:30N 37°48' W 122°24'4 7.8
2017-Dec-09 01:00N 37°52' W 122°25'1122.0
2017-Dec-09 00:30N 38°02' W 122°21'6 8.2
2017-Dec-08 23:50N 38°06' W 122°16'0 0.4
2017-Dec-08 23:28N 38°06' W 122°16'920.0
2017-Dec-08 23:00N 37°60' W 122°25'1223.7
2017-Dec-08 22:30N 37°48' W 122°24'0 0.0
2017-Dec-08 22:00N 37°48' W 122°24'0 0.0
2017-Dec-08 21:30N 37°48' W 122°24'1 1.0
2017-Dec-08 21:01N 37°48' W 122°23'1223.9
2017-Dec-08 20:31N 38°00' W 122°24'917.2
2017-Dec-08 20:00N 38°06' W 122°16'0 0.4
2017-Dec-08 19:30N 38°06' W 122°16'0 0.2
2017-Dec-08 19:00N 38°06' W 122°16'2 3.4
2017-Dec-08 18:30N 38°05' W 122°15'1123.1
2017-Dec-08 18:01N 37°57' W 122°26'1019.4
2017-Dec-08 17:30N 37°48' W 122°24'1223.6
2017-Dec-08 17:00N 37°60' W 122°25'1018.6
2017-Dec-08 16:29N 38°06' W 122°16'2 4.8
2017-Dec-08 16:01N 38°04' W 122°16'1224.1
2017-Dec-08 15:31N 37°54' W 122°25'612.2
2017-Dec-08 15:01N 37°48' W 122°24'1223.7
2017-Dec-08 14:30N 37°60' W 122°24'918.6
2017-Dec-08 14:01N 38°06' W 122°16'0 0.6
2017-Dec-08 13:30N 38°06' W 122°16'0 0.0
2017-Dec-08 13:00N 38°06' W 122°16'0 0.0
2017-Dec-08 02:47N 38°06' W 122°16'1 4.2
2017-Dec-08 02:30N 38°05' W 122°15'1019.8
2017-Dec-08 02:00N 37°59' W 122°25'1123.0
2017-Dec-08 01:30N 37°48' W 122°24'2 4.3
2017-Dec-08 01:01N 37°50' W 122°24'1223.6
2017-Dec-08 00:31N 38°02' W 122°21'6 7.5
2017-Dec-07 23:40N 38°06' W 122°16'0 0.0
2017-Dec-07 23:27N 38°06' W 122°16'0 0.8
2017-Dec-07 22:55N 38°06' W 122°16'2 5.4
2017-Dec-07 22:30N 38°04' W 122°17'  
Track history (hours):
 
Tides and Currents Weather Stations Pressure Air Temp Water Temp Dewpoint Dewpoint Depression Visibility Wind Speed Wind Dir Waves Ship Positions

Gemini

Owner: San Francisco Bay Area Water Emergency Transportation Authority, San Francisco, CA. More information available from US FCC via Universal Licensing System and Coast Guard Vessel Documentation Center.

Last reported at 2017-Dec-16 02:46 UTC. Time now 2017-Dec-18 03:12 UTC.
Position N 38°06' W 122°16'.

Length 35 m.

Type: Passenger vessel. MMSI: 367380880.

Date/timePositionNaut miles runAvg speedWind from/ knotsBaromVisibWave heightAir tempDewpointWater temp
2017-Dec-16 02:46N 38°06' W 122°16'1 2.5
2017-Dec-16 02:30N 38°06' W 122°16'918.9
2017-Dec-16 02:01N 37°60' W 122°25'1223.5
2017-Dec-16 01:30N 37°48' W 122°24'1 2.4
2017-Dec-16 01:01N 37°49' W 122°24'1224.2
2017-Dec-16 00:30N 38°01' W 122°23'714.4
2017-Dec-16 00:00N 38°06' W 122°16'1 2.4
2017-Dec-15 23:29N 38°05' W 122°15'1020.8
2017-Dec-15 23:00N 37°59' W 122°25'1122.8
2017-Dec-15 22:30N 37°48' W 122°24'0 0.0
2017-Dec-15 22:00N 37°48' W 122°24'0 0.0
2017-Dec-15 21:30N 37°48' W 122°24'0 0.9
2017-Dec-15 21:00N 37°48' W 122°23'1323.9
2017-Dec-15 20:29N 38°01' W 122°23'816.0
2017-Dec-15 20:00N 38°06' W 122°16'0 0.6
2017-Dec-15 19:30N 38°06' W 122°16'0 0.0
2017-Dec-15 18:57N 38°06' W 122°16'2 3.8
2017-Dec-15 18:30N 38°05' W 122°15'1224.4
2017-Dec-15 18:01N 37°56' W 122°26'816.3
2017-Dec-15 17:31N 37°48' W 122°24'1224.6
2017-Dec-15 17:00N 38°00' W 122°24'811.2
2017-Dec-15 16:15N 38°06' W 122°16'2 8.8
2017-Dec-15 16:00N 38°04' W 122°16'1325.3
2017-Dec-15 15:31N 37°53' W 122°25'611.2
2017-Dec-15 15:01N 37°48' W 122°24'1223.7
2017-Dec-15 14:30N 37°60' W 122°25'912.6
2017-Dec-15 13:46N 38°06' W 122°16'1 0.1
2017-Dec-15 02:30N 38°05' W 122°15'1812.0
2017-Dec-15 01:01N 37°49' W 122°23'1224.3
2017-Dec-15 00:31N 38°01' W 122°23'8 1.3
2017-Dec-14 18:30N 38°05' W 122°15'1223.5
2017-Dec-14 18:01N 37°57' W 122°26'918.7
2017-Dec-14 17:30N 37°48' W 122°23'1224.4
2017-Dec-14 17:00N 38°00' W 122°24'917.6
2017-Dec-14 16:30N 38°06' W 122°16'2 4.7
2017-Dec-14 16:00N 38°04' W 122°16'1716.9
2017-Dec-14 15:00N 37°48' W 122°24'1224.0
2017-Dec-14 14:30N 37°60' W 122°25'918.5
2017-Dec-14 14:00N 38°06' W 122°16'0 0.6
2017-Dec-14 13:30N 38°06' W 122°16'0 0.0
2017-Dec-14 13:00N 38°06' W 122°16'0 0.0
2017-Dec-14 02:26N 38°06' W 122°16'3 7.3
2017-Dec-14 02:01N 38°03' W 122°18'1122.9
2017-Dec-14 01:31N 37°53' W 122°25'5 9.4
2017-Dec-14 01:01N 37°49' W 122°24'1325.3
2017-Dec-14 00:30N 38°01' W 122°23'714.4
2017-Dec-14 00:00N 38°06' W 122°16'1 1.9
2017-Dec-13 23:30N 38°05' W 122°15'1019.6
2017-Dec-13 23:00N 37°59' W 122°25'1122.9
2017-Dec-13 22:30N 37°48' W 122°24'0 0.0
2017-Dec-13 22:00N 37°48' W 122°24'0 0.0
2017-Dec-13 21:30N 37°48' W 122°24'0 0.5
2017-Dec-13 21:01N 37°48' W 122°24'1224.5
2017-Dec-13 20:31N 38°00' W 122°24'815.6
2017-Dec-13 19:58N 38°06' W 122°16'0 0.6
2017-Dec-13 19:30N 38°06' W 122°16'0 0.0
2017-Dec-13 19:00N 38°06' W 122°16'2 4.6
2017-Dec-13 18:30N 38°04' W 122°17'1122.9
2017-Dec-13 18:01N 37°55' W 122°25'713.3
2017-Dec-13 17:31N 37°48' W 122°23'1223.9
2017-Dec-13 17:00N 38°01' W 122°23'814.0
2017-Dec-13 16:25N 38°06' W 122°16'3 7.0
2017-Dec-13 16:01N 38°03' W 122°17'1224.5
2017-Dec-13 15:31N 37°53' W 122°25'5 9.5
2017-Dec-13 15:01N 37°48' W 122°23'1223.8
2017-Dec-13 14:30N 37°60' W 122°24'918.1
2017-Dec-13 14:00N 38°06' W 122°16'0 0.0
2017-Dec-13 03:08N 38°06' W 122°16'1 4.8
2017-Dec-13 02:59N 38°05' W 122°15'1021.5
2017-Dec-13 02:31N 37°59' W 122°25'1120.6
2017-Dec-13 01:58N 37°48' W 122°24'919.6
2017-Dec-13 01:30N 37°56' W 122°27'1223.2
2017-Dec-13 00:58N 38°05' W 122°15'0 1.0
2017-Dec-13 00:29N 38°05' W 122°15'1123.1
2017-Dec-13 00:00N 37°58' W 122°26'1019.2
2017-Dec-12 23:28N 37°48' W 122°24'1 2.6
2017-Dec-12 23:00N 37°49' W 122°25'1224.0
2017-Dec-12 22:30N 38°01' W 122°24'811.8
2017-Dec-12 21:48N 38°06' W 122°16'0 0.2
2017-Dec-12 20:45N 38°06' W 122°16'1 2.5
2017-Dec-12 20:30N 38°06' W 122°15'918.8
2017-Dec-12 20:00N 37°60' W 122°25'1121.2
2017-Dec-12 19:29N 37°49' W 122°25'1 2.5
2017-Dec-12 19:01N 37°48' W 122°24'1224.0
2017-Dec-12 18:30N 37°60' W 122°24'912.4
2017-Dec-12 17:46N 38°06' W 122°16'0 0.0
2017-Dec-12 17:28N 38°06' W 122°16'3 7.0
2017-Dec-12 17:00N 38°03' W 122°18'1122.7
2017-Dec-12 16:30N 37°53' W 122°25'611.0
2017-Dec-12 16:00N 37°48' W 122°24'1123.7
2017-Dec-12 15:31N 37°59' W 122°25'10 1.0
2017-Dec-12 06:02N 38°06' W 122°16'0 1.8
2017-Dec-12 06:00N 38°06' W 122°16'0 0.7
2017-Dec-12 05:30N 38°06' W 122°16'816.9
2017-Dec-12 05:01N 38°00' W 122°24'1224.8
2017-Dec-12 04:30N 37°48' W 122°24'918.0
2017-Dec-12 04:00N 37°56' W 122°27'1325.0
2017-Dec-12 03:30N 38°05' W 122°15'1 2.1
2017-Dec-12 02:59N 38°06' W 122°16'1122.5
2017-Dec-12 02:30N 37°59' W 122°25'1121.6
2017-Dec-12 02:00N 37°48' W 122°24'815.3
2017-Dec-12 01:31N 37°55' W 122°27'1326.3
2017-Dec-12 01:00N 38°04' W 122°15'1 2.3
2017-Dec-12 00:25N 38°06' W 122°16'921.9
2017-Dec-12 00:00N 37°60' W 122°24'1224.0
2017-Dec-11 23:30N 37°48' W 122°24'1 2.4
2017-Dec-11 23:00N 37°49' W 122°25'1122.2
2017-Dec-11 22:30N 37°60' W 122°25'9 3.4
2017-Dec-11 19:49N 38°06' W 122°16'0 0.0
2017-Dec-11 19:30N 38°06' W 122°16'0 0.1
2017-Dec-11 18:58N 38°06' W 122°16'510.0
2017-Dec-11 18:30N 38°02' W 122°19'1122.5
2017-Dec-11 18:01N 37°52' W 122°25'4 8.1
2017-Dec-11 17:31N 37°48' W 122°24'1224.1
2017-Dec-11 17:00N 37°60' W 122°25'918.1
2017-Dec-11 16:30N 38°06' W 122°16'3 5.2
2017-Dec-11 16:01N 38°04' W 122°16'1224.5
2017-Dec-11 15:31N 37°53' W 122°25'510.8
2017-Dec-11 15:01N 37°48' W 122°23'1224.1
2017-Dec-11 14:31N 38°00' W 122°24'917.5
2017-Dec-11 14:00N 38°06' W 122°16'0 0.4
2017-Dec-11 13:16N 38°06' W 122°16'  
2017-Dec-09 02:54N 38°06' W 122°16'1 2.3
2017-Dec-09 02:29N 38°05' W 122°15'1020.5
2017-Dec-09 02:00N 37°59' W 122°25'1223.1
2017-Dec-09 01:30N 37°48' W 122°24'4 7.8
2017-Dec-09 01:00N 37°52' W 122°25'1122.0
2017-Dec-09 00:30N 38°02' W 122°21'6 8.2
2017-Dec-08 23:50N 38°06' W 122°16'0 0.4
2017-Dec-08 23:28N 38°06' W 122°16'920.0
2017-Dec-08 23:00N 37°60' W 122°25'1223.7
2017-Dec-08 22:30N 37°48' W 122°24'0 0.0
2017-Dec-08 22:00N 37°48' W 122°24'0 0.0
2017-Dec-08 21:30N 37°48' W 122°24'1 1.0
2017-Dec-08 21:01N 37°48' W 122°23'1223.9
2017-Dec-08 20:31N 38°00' W 122°24'917.2
2017-Dec-08 20:00N 38°06' W 122°16'0 0.4
2017-Dec-08 19:30N 38°06' W 122°16'0 0.2
2017-Dec-08 19:00N 38°06' W 122°16'2 3.4
2017-Dec-08 18:30N 38°05' W 122°15'1123.1
2017-Dec-08 18:01N 37°57' W 122°26'1019.4
2017-Dec-08 17:30N 37°48' W 122°24'1223.6
2017-Dec-08 17:00N 37°60' W 122°25'1018.6
2017-Dec-08 16:29N 38°06' W 122°16'2 4.8
2017-Dec-08 16:01N 38°04' W 122°16'1224.1
2017-Dec-08 15:31N 37°54' W 122°25'612.2
2017-Dec-08 15:01N 37°48' W 122°24'1223.7
2017-Dec-08 14:30N 37°60' W 122°24'918.6
2017-Dec-08 14:01N 38°06' W 122°16'0 0.6
2017-Dec-08 13:30N 38°06' W 122°16'0 0.0
2017-Dec-08 13:00N 38°06' W 122°16'0 0.0
2017-Dec-08 02:47N 38°06' W 122°16'1 4.2
2017-Dec-08 02:30N 38°05' W 122°15'1019.8
2017-Dec-08 02:00N 37°59' W 122°25'1123.0
2017-Dec-08 01:30N 37°48' W 122°24'2 4.3
2017-Dec-08 01:01N 37°50' W 122°24'1223.6
2017-Dec-08 00:31N 38°02' W 122°21'6 7.5
2017-Dec-07 23:40N 38°06' W 122°16'0 0.0
2017-Dec-07 23:27N 38°06' W 122°16'0 0.8
2017-Dec-07 22:55N 38°06' W 122°16'2 5.4
2017-Dec-07 22:30N 38°04' W 122°17'  

Dump ship's entire track history